world map with UCFL marked

UCFL - Airport

This information may not be accurate or current and is not valid for navigation or flight planning. No warranty of fitness for any purpose is made or implied.

flag of Kyrgyzstan

Donate via PayPal

Additional information is available on the NEW Great Circle Mapper

Location
City:  Tamchy, Issyk-Kul (Ysyk-Köl), Kyrgyzstan
Near (Alt.):Ysykkul
Name:Issyk-Kul International (Tamchy Airport)
ICAO:UCFL

Details
Type:Airport (Aerodrome, Airfield)
Use:Public/Civil
Latitude:42°35'18"N (42.588333)
Longitude:76°42'48"E (76.713333)
Elevation:5423 ft (1653 m)
Runways:1
Longest:6562 × 148 ft (2000 × 45 m)

Time
Timezone:UTC+6 (DST+8)
Local Time:

Weather
METAR:UCFL  130300Z VRB01MPS 9999 FEW030CB FEW100 M03/M13 Q1022 R07/CLRD70 RMK G/O

Related Locations
Nearby:
Farthest:NEMO: 11377 mi / 18310 km
Pacific Ocean [Oceanic Pole of Inaccessibility (Point Nemo)]

Find:

   beyond  
but within

Other Information
Maps:
Sources:

  


 


Great Circle Mapper   Great Circle Mapper
Great Circle Mapper FAQ   Great Circle Mapper FAQ
  Karl's Home Page
KLS˛   KLS˛ Home
   GC on Facebook
Airlines of the World   Airlines of the World
Donate via PayPal


Copyright © 2004-2017, Karl L. Swartz. All rights reserved.
All trademarks mentioned herein belong to their respective owners.

Please see credits for attribution and copyright information.

Karl Swartz <karl@kls2.com>
  Powered by FreeBSD
Valid HTML 4.01!
Labeled with ICRA
hCard Microformat
Geo Microformat